Sensho — JG5609 — position and weather

sailwx.info

Track history (hours):
 
Tides and Currents Weather Stations Pressure Air Temp Water Temp Dewpoint Dewpoint Depression Visibility Wind Speed Wind Dir Waves Ship Positions

Sensho

Last reported at 2017-Nov-17 18:38 UTC. Time now 2017-Nov-19 21:53 UTC.
Position N 34°38' E 135°29'.

Length 81 m; draft 4 m.

Type: Cargo ship. MMSI: 431100886.

Date/timePositionNaut miles runAvg speedWind from/ knotsBaromVisibWave heightAir tempDewpointWater temp
2017-Nov-17 18:38N 34°38' E 135°29'0 0.0
2017-Nov-17 18:26N 34°38' E 135°29'0 0.0
2017-Nov-17 15:32N 34°38' E 135°29'0 0.0
2017-Nov-17 15:26N 34°38' E 135°29'0 0.0
2017-Nov-17 14:56N 34°38' E 135°29'0 0.0
2017-Nov-17 14:26N 34°38' E 135°29'0 0.0
2017-Nov-17 13:44N 34°38' E 135°29'0 0.0
2017-Nov-17 13:14N 34°38' E 135°29'0 0.0
2017-Nov-17 12:56N 34°38' E 135°29'0 0.0
2017-Nov-17 12:26N 34°38' E 135°29'0 0.0
2017-Nov-17 11:56N 34°38' E 135°29'0 0.2
2017-Nov-17 11:30N 34°38' E 135°28'3 6.1
2017-Nov-17 11:00N 34°39' E 135°25'4 7.9
2017-Nov-17 10:30N 34°35' E 135°27'1 1.5
2017-Nov-17 10:00N 34°34' E 135°27'0 0.0
2017-Nov-17 03:45N 34°35' E 135°27'2 9.9
2017-Nov-17 03:30N 34°36' E 135°24'611.8
2017-Nov-17 03:00N 34°33' E 135°18'511.0
2017-Nov-17 02:30N 34°30' E 135°12'2 4.9
2017-Nov-17 02:00N 34°30' E 135°09'713.6
2017-Nov-17 01:30N 34°35' E 135°04'5 0.1
2017-Nov-15 09:12N 34°38' E 134°58'315.8
2017-Nov-15 09:00N 34°37' E 135°02'714.1
2017-Nov-15 08:30N 34°36' E 135°11'713.7
2017-Nov-15 08:00N 34°36' E 135°19'612.6
2017-Nov-15 07:31N 34°35' E 135°26'1 0.1
2017-Nov-15 00:41N 34°34' E 135°27'0 0.4
2017-Nov-15 00:30N 34°34' E 135°27'510.6
2017-Nov-15 00:00N 34°36' E 135°21'713.0
2017-Nov-14 23:30N 34°35' E 135°13'713.8
2017-Nov-14 23:00N 34°35' E 135°05'18 0.4
2017-Nov-13 01:58N 34°34' E 135°27'0 0.0
2017-Nov-12 02:51N 34°34' E 135°27'2 6.6
2017-Nov-12 02:30N 34°36' E 135°25'613.2
2017-Nov-12 02:00N 34°35' E 135°17'714.4
2017-Nov-12 01:30N 34°35' E 135°08'11 0.3
2017-Nov-10 11:41N 34°37' E 134°55'312.5
2017-Nov-10 11:26N 34°37' E 134°59'511.4
2017-Nov-10 11:00N 34°36' E 135°04'713.4
2017-Nov-10 10:30N 34°36' E 135°13'714.0
2017-Nov-10 10:00N 34°36' E 135°21'510.0
2017-Nov-10 09:29N 34°35' E 135°27'0 0.0
2017-Nov-10 02:14N 34°34' E 135°27'1 4.8
2017-Nov-10 02:00N 34°35' E 135°26'612.8
2017-Nov-10 01:30N 34°36' E 135°18'713.9
2017-Nov-10 01:00N 34°35' E 135°10'813.0
2017-Nov-10 00:22N 34°37' E 135°00'5 0.1
2017-Nov-08 10:46N 34°36' E 134°54'413.6
2017-Nov-08 10:30N 34°37' E 134°58'611.7
2017-Nov-08 10:01N 34°36' E 135°05'713.6
2017-Nov-08 09:30N 34°36' E 135°13'713.6
2017-Nov-08 09:01N 34°36' E 135°21'510.1
2017-Nov-08 08:30N 34°35' E 135°27'1 0.1
2017-Nov-08 01:11N 34°35' E 135°26'212.2
2017-Nov-08 01:00N 34°36' E 135°24'713.4
2017-Nov-08 00:30N 34°36' E 135°16'714.0
2017-Nov-08 00:00N 34°35' E 135°08'612.1
2017-Nov-07 23:30N 34°37' E 135°01'  
Track history (hours):
 
Tides and Currents Weather Stations Pressure Air Temp Water Temp Dewpoint Dewpoint Depression Visibility Wind Speed Wind Dir Waves Ship Positions

Sensho

Last reported at 2017-Nov-17 18:38 UTC. Time now 2017-Nov-19 21:53 UTC.
Position N 34°38' E 135°29'.

Length 81 m; draft 4 m.

Type: Cargo ship. MMSI: 431100886.

Date/timePositionNaut miles runAvg speedWind from/ knotsBaromVisibWave heightAir tempDewpointWater temp
2017-Nov-17 18:38N 34°38' E 135°29'0 0.0
2017-Nov-17 18:26N 34°38' E 135°29'0 0.0
2017-Nov-17 15:32N 34°38' E 135°29'0 0.0
2017-Nov-17 15:26N 34°38' E 135°29'0 0.0
2017-Nov-17 14:56N 34°38' E 135°29'0 0.0
2017-Nov-17 14:26N 34°38' E 135°29'0 0.0
2017-Nov-17 13:44N 34°38' E 135°29'0 0.0
2017-Nov-17 13:14N 34°38' E 135°29'0 0.0
2017-Nov-17 12:56N 34°38' E 135°29'0 0.0
2017-Nov-17 12:26N 34°38' E 135°29'0 0.0
2017-Nov-17 11:56N 34°38' E 135°29'0 0.2
2017-Nov-17 11:30N 34°38' E 135°28'3 6.1
2017-Nov-17 11:00N 34°39' E 135°25'4 7.9
2017-Nov-17 10:30N 34°35' E 135°27'1 1.5
2017-Nov-17 10:00N 34°34' E 135°27'0 0.0
2017-Nov-17 03:45N 34°35' E 135°27'2 9.9
2017-Nov-17 03:30N 34°36' E 135°24'611.8
2017-Nov-17 03:00N 34°33' E 135°18'511.0
2017-Nov-17 02:30N 34°30' E 135°12'2 4.9
2017-Nov-17 02:00N 34°30' E 135°09'713.6
2017-Nov-17 01:30N 34°35' E 135°04'5 0.1
2017-Nov-15 09:12N 34°38' E 134°58'315.8
2017-Nov-15 09:00N 34°37' E 135°02'714.1
2017-Nov-15 08:30N 34°36' E 135°11'713.7
2017-Nov-15 08:00N 34°36' E 135°19'612.6
2017-Nov-15 07:31N 34°35' E 135°26'1 0.1
2017-Nov-15 00:41N 34°34' E 135°27'0 0.4
2017-Nov-15 00:30N 34°34' E 135°27'510.6
2017-Nov-15 00:00N 34°36' E 135°21'713.0
2017-Nov-14 23:30N 34°35' E 135°13'713.8
2017-Nov-14 23:00N 34°35' E 135°05'18 0.4
2017-Nov-13 01:58N 34°34' E 135°27'0 0.0
2017-Nov-12 02:51N 34°34' E 135°27'2 6.6
2017-Nov-12 02:30N 34°36' E 135°25'613.2
2017-Nov-12 02:00N 34°35' E 135°17'714.4
2017-Nov-12 01:30N 34°35' E 135°08'11 0.3
2017-Nov-10 11:41N 34°37' E 134°55'312.5
2017-Nov-10 11:26N 34°37' E 134°59'511.4
2017-Nov-10 11:00N 34°36' E 135°04'713.4
2017-Nov-10 10:30N 34°36' E 135°13'714.0
2017-Nov-10 10:00N 34°36' E 135°21'510.0
2017-Nov-10 09:29N 34°35' E 135°27'0 0.0
2017-Nov-10 02:14N 34°34' E 135°27'1 4.8
2017-Nov-10 02:00N 34°35' E 135°26'612.8
2017-Nov-10 01:30N 34°36' E 135°18'713.9
2017-Nov-10 01:00N 34°35' E 135°10'813.0
2017-Nov-10 00:22N 34°37' E 135°00'5 0.1
2017-Nov-08 10:46N 34°36' E 134°54'413.6
2017-Nov-08 10:30N 34°37' E 134°58'611.7
2017-Nov-08 10:01N 34°36' E 135°05'713.6
2017-Nov-08 09:30N 34°36' E 135°13'713.6
2017-Nov-08 09:01N 34°36' E 135°21'510.1
2017-Nov-08 08:30N 34°35' E 135°27'1 0.1
2017-Nov-08 01:11N 34°35' E 135°26'212.2
2017-Nov-08 01:00N 34°36' E 135°24'713.4
2017-Nov-08 00:30N 34°36' E 135°16'714.0
2017-Nov-08 00:00N 34°35' E 135°08'612.1
2017-Nov-07 23:30N 34°37' E 135°01'  

Dump ship's entire track history